Main page
METAR-TAF:

METAR-TAF

Airports :

Hermiston Municipal Airport

Hermiston, Oregon, United States

latitude: 45-49-33N, longitude: 119-15-40W, elevation: 636 ft

Current weather observation

The report was made 19 minutes ago, at 06:53 UTC
Wind 7 mph from the Southeast
Temperature 45°F
Humidity 57%
Pressure 30.21 in. Hg
Visibility: 10 miles
Clear sky

METAR: KHRI 220653Z AUTO 14006KT 10SM CLR 07/M01 A3021 RMK AO2 SLP230 T00671011 $

Time: 00:12 (07:12 UTC)


TAF: missing

Weather observations and forecasts of more than 4000 airports (METAR and TAF reports).

The available stations are represented by yellow and red dots on the map.

Hover mouse over dot to see the name of the station.

Then click to see weather observations and forecasts.

To change the map : click on the green buttons with a black cross to zoom in, on the green button with a dash to zoom out, or on the green arrows for adjacent maps.


METAR-TAF: